Terminal Aerodrome Forecast
Issued by NWS

Home | Current Version | Previous Version | Text Only | Print | Product List | Glossary On
Versions: 1 2 3 4 5 6 7 8 9 10 11 12 13 14 15 16 17 18 19 20 21 22 23 24 25
903
FTUS43 KILX 181139
TAFCMI
TAF
KCMI 181139Z 1812/1912 22009KT 6SM -DZ BR SCT008 OVC015
     FM181400 23009KT 6SM -DZ BR OVC008
     FM181800 23013KT P6SM OVC015
     FM182000 24013KT P6SM OVC025
     FM182200 23011KT P6SM BKN035
     FM190000 22010KT P6SM SKC=

USA.gov is the U.S. government's official web portal to all federal, state and local government web resources and services.